createdAt,value
2023-03-07T00:00:18.201Z,2.80
2023-03-07T00:02:44.970Z,2.80
2023-03-07T00:05:11.732Z,2.70
2023-03-07T00:07:38.483Z,2.80
2023-03-07T00:10:06.127Z,2.80
2023-03-07T00:12:32.891Z,2.80
2023-03-07T00:14:59.607Z,2.80
2023-03-07T00:17:27.648Z,2.80
2023-03-07T00:19:54.385Z,2.80
2023-03-07T00:22:21.105Z,2.80
2023-03-07T00:24:47.999Z,2.80
2023-03-07T00:27:14.896Z,2.90
2023-03-07T00:29:41.708Z,2.90
2023-03-07T00:32:08.525Z,2.90
2023-03-07T00:34:36.596Z,2.90
2023-03-07T00:37:04.534Z,2.80
2023-03-07T00:39:31.260Z,2.90
2023-03-07T00:41:57.981Z,2.80
2023-03-07T00:44:24.823Z,2.80
2023-03-07T00:46:51.668Z,2.80
2023-03-07T00:49:18.637Z,2.80
2023-03-07T00:51:46.788Z,2.80
2023-03-07T00:54:13.698Z,2.80
2023-03-07T00:56:40.758Z,2.80
2023-03-07T00:59:07.951Z,2.80
2023-03-07T01:01:35.279Z,2.80
2023-03-07T01:04:02.072Z,2.80
2023-03-07T01:06:30.763Z,2.80
2023-03-07T01:09:00.838Z,2.80
2023-03-07T01:11:29.110Z,2.80
2023-03-07T01:13:56.661Z,2.70
2023-03-07T01:16:24.935Z,2.80
2023-03-07T01:18:54.960Z,2.80
2023-03-07T01:21:23.478Z,2.80
2023-03-07T01:23:50.540Z,2.80
2023-03-07T01:26:21.358Z,2.90
2023-03-07T01:28:48.100Z,2.80
2023-03-07T01:31:14.852Z,2.80
2023-03-07T01:33:41.597Z,2.80
2023-03-07T01:36:16.684Z,2.80
2023-03-07T01:38:43.410Z,2.80
2023-03-07T01:41:10.141Z,2.80
2023-03-07T01:43:39.158Z,2.80
2023-03-07T01:46:41.596Z,2.90
2023-03-07T01:49:13.881Z,2.90
2023-03-07T01:51:43.860Z,2.90
2023-03-07T01:54:13.471Z,2.90
2023-03-07T01:56:40.644Z,2.90
2023-03-07T01:59:09.040Z,2.90
2023-03-07T02:01:36.884Z,2.90
2023-03-07T02:04:09.599Z,2.80
2023-03-07T02:06:38.567Z,2.80
2023-03-07T02:09:08.801Z,2.80
2023-03-07T02:11:35.676Z,2.80
2023-03-07T02:14:02.381Z,2.80
2023-03-07T02:16:31.455Z,2.80
2023-03-07T02:18:58.205Z,2.80
2023-03-07T02:21:33.378Z,2.80
2023-03-07T02:24:07.957Z,2.80
2023-03-07T02:26:46.172Z,2.80
2023-03-07T02:29:14.112Z,2.80
2023-03-07T02:31:41.549Z,2.80
2023-03-07T02:34:18.857Z,2.80
2023-03-07T02:36:46.486Z,2.80
2023-03-07T02:39:13.470Z,2.80
2023-03-07T02:41:40.596Z,2.80
2023-03-07T02:44:08.617Z,2.80
2023-03-07T02:46:35.395Z,2.80
2023-03-07T02:49:02.116Z,2.90
2023-03-07T02:51:28.820Z,2.90
2023-03-07T02:53:55.507Z,2.80
2023-03-07T02:56:22.196Z,2.90
2023-03-07T02:58:48.963Z,2.90
2023-03-07T03:01:17.069Z,2.90
2023-03-07T03:03:43.773Z,2.90
2023-03-07T03:06:10.606Z,2.90
2023-03-07T03:08:37.337Z,2.90
2023-03-07T03:11:04.214Z,2.90
2023-03-07T03:13:30.944Z,2.90
2023-03-07T03:15:58.368Z,2.90
2023-03-07T03:18:28.530Z,2.90
2023-03-07T03:20:55.248Z,2.90
2023-03-07T03:23:22.019Z,2.90
2023-03-07T03:25:57.838Z,2.90
2023-03-07T03:28:24.660Z,2.90
2023-03-07T03:30:57.986Z,2.90
2023-03-07T03:33:27.181Z,2.90
2023-03-07T03:35:53.960Z,2.90
2023-03-07T03:38:20.712Z,2.90
2023-03-07T03:40:47.449Z,2.90
2023-03-07T03:43:14.522Z,2.90
2023-03-07T03:45:41.310Z,2.90
2023-03-07T03:48:08.264Z,2.90
2023-03-07T03:50:36.490Z,2.90
2023-03-07T03:53:03.201Z,2.90
2023-03-07T03:55:30.052Z,2.80
2023-03-07T03:57:56.768Z,2.90
2023-03-07T04:00:23.469Z,2.80
2023-03-07T04:02:50.364Z,2.80
2023-03-07T04:05:17.214Z,2.80
2023-03-07T04:07:45.375Z,2.80
2023-03-07T04:10:12.357Z,2.80
2023-03-07T04:12:39.148Z,2.80
2023-03-07T04:15:07.522Z,2.80
2023-03-07T04:17:34.812Z,2.80
2023-03-07T04:20:01.539Z,2.80
2023-03-07T04:22:28.403Z,2.70
2023-03-07T04:24:56.460Z,2.70
2023-03-07T04:27:23.244Z,2.70
2023-03-07T04:29:49.944Z,2.70
2023-03-07T04:32:16.893Z,2.70
2023-03-07T04:34:43.623Z,2.70
2023-03-07T04:37:10.342Z,2.70
2023-03-07T04:39:37.053Z,2.70
2023-03-07T04:42:05.402Z,2.70
2023-03-07T04:44:32.180Z,2.70
2023-03-07T04:46:58.890Z,2.70
2023-03-07T04:49:25.675Z,2.70
2023-03-07T04:51:52.419Z,2.70
2023-03-07T04:54:19.162Z,2.60
2023-03-07T04:56:45.931Z,2.60
2023-03-07T04:59:14.004Z,2.60
2023-03-07T05:01:40.734Z,2.60
2023-03-07T05:04:07.522Z,2.70
2023-03-07T05:06:34.284Z,2.60
2023-03-07T05:09:01.005Z,2.70
2023-03-07T05:11:27.741Z,2.60
2023-03-07T05:13:54.423Z,2.60
2023-03-07T05:16:22.532Z,2.60
2023-03-07T05:18:49.240Z,2.60
2023-03-07T05:21:15.976Z,2.60
2023-03-07T05:23:42.707Z,2.60
2023-03-07T05:26:09.538Z,2.60
2023-03-07T05:28:36.356Z,2.60
2023-03-07T05:31:03.187Z,2.70
2023-03-07T05:33:31.282Z,2.70
2023-03-07T05:35:59.814Z,2.70
2023-03-07T05:38:26.565Z,2.70
2023-03-07T05:40:53.276Z,2.60
2023-03-07T05:43:20.009Z,2.70
2023-03-07T05:45:46.717Z,2.60
2023-03-07T05:48:14.268Z,2.70
2023-03-07T05:50:42.382Z,2.70
2023-03-07T05:53:09.154Z,2.60
2023-03-07T05:55:35.869Z,2.70
2023-03-07T05:58:02.830Z,2.70
2023-03-07T06:00:29.774Z,2.70
2023-03-07T06:02:56.779Z,2.70
2023-03-07T06:05:25.332Z,2.70
2023-03-07T06:07:53.614Z,2.70
2023-03-07T06:10:20.434Z,2.70
2023-03-07T06:12:49.703Z,2.70
2023-03-07T06:15:16.607Z,2.70
2023-03-07T06:17:43.839Z,2.70
2023-03-07T06:20:11.920Z,2.70
2023-03-07T06:22:38.969Z,2.70
2023-03-07T06:25:09.418Z,2.70
2023-03-07T06:27:37.194Z,2.70
2023-03-07T06:30:06.083Z,2.70
2023-03-07T06:32:33.136Z,2.70
2023-03-07T06:34:59.956Z,2.70
2023-03-07T06:37:26.697Z,2.70
2023-03-07T06:39:54.055Z,2.70
2023-03-07T06:42:22.138Z,2.70
2023-03-07T06:44:48.857Z,2.70
2023-03-07T06:47:15.637Z,2.70
2023-03-07T06:49:42.363Z,2.70
2023-03-07T06:52:09.078Z,2.70
2023-03-07T06:54:35.800Z,2.80
2023-03-07T06:57:02.536Z,2.80
2023-03-07T06:59:30.637Z,2.70
2023-03-07T07:01:57.410Z,2.80
2023-03-07T07:04:24.213Z,2.80
2023-03-07T07:06:50.980Z,2.80
2023-03-07T07:09:17.774Z,2.80
2023-03-07T07:11:44.685Z,2.80
2023-03-07T07:14:11.480Z,2.80
2023-03-07T07:16:39.816Z,2.80
2023-03-07T07:19:06.619Z,2.80
2023-03-07T07:21:33.337Z,2.90
2023-03-07T07:24:00.078Z,2.90
2023-03-07T07:26:26.991Z,2.90
2023-03-07T07:28:53.797Z,2.90
2023-03-07T07:31:20.618Z,2.90
2023-03-07T07:33:48.765Z,2.90
2023-03-07T07:36:15.567Z,2.90
2023-03-07T07:38:42.264Z,3.00
2023-03-07T07:41:09.083Z,3.00
2023-03-07T07:43:35.904Z,3.00
2023-03-07T07:46:03.479Z,3.00
2023-03-07T07:48:33.096Z,3.00
2023-03-07T07:51:02.432Z,3.00
2023-03-07T07:53:29.279Z,3.00
2023-03-07T07:55:56.125Z,3.00
2023-03-07T07:58:22.895Z,3.10
2023-03-07T08:00:49.632Z,3.10
2023-03-07T08:03:16.372Z,3.10
2023-03-07T08:05:49.217Z,3.10
2023-03-07T08:08:18.236Z,3.10
2023-03-07T08:10:46.888Z,3.10
2023-03-07T08:13:14.378Z,3.10
2023-03-07T08:15:41.769Z,3.10
2023-03-07T08:18:08.724Z,3.10
2023-03-07T08:20:36.692Z,3.20
2023-03-07T08:23:03.852Z,3.20
2023-03-07T08:25:31.899Z,3.20
2023-03-07T08:27:58.796Z,3.20
2023-03-07T08:30:27.645Z,3.20
2023-03-07T08:32:55.410Z,3.20
2023-03-07T08:35:23.639Z,3.20
2023-03-07T08:37:54.252Z,3.20
2023-03-07T08:40:21.685Z,3.20
2023-03-07T08:42:49.739Z,3.20
2023-03-07T08:45:16.716Z,3.20
2023-03-07T08:47:43.517Z,3.20
2023-03-07T08:50:11.349Z,3.30
2023-03-07T08:52:38.093Z,3.30
2023-03-07T08:55:05.651Z,3.30
2023-03-07T08:57:32.556Z,3.30
2023-03-07T09:00:00.604Z,3.30
2023-03-07T09:02:27.310Z,3.30
2023-03-07T09:04:54.280Z,3.30
2023-03-07T09:07:21.019Z,3.40
2023-03-07T09:09:47.714Z,3.40
2023-03-07T09:12:14.986Z,3.40
2023-03-07T09:14:41.895Z,3.40
2023-03-07T09:17:09.986Z,3.40
2023-03-07T09:19:36.710Z,3.40
2023-03-07T09:22:03.534Z,3.40
2023-03-07T09:24:30.362Z,3.40
2023-03-07T09:26:57.192Z,3.50
2023-03-07T09:29:24.060Z,3.50
2023-03-07T09:31:50.857Z,3.50
2023-03-07T09:34:18.972Z,3.50
2023-03-07T09:36:45.745Z,3.50
2023-03-07T09:39:12.495Z,3.60
2023-03-07T09:41:53.753Z,3.60
2023-03-07T09:44:29.925Z,3.60
2023-03-07T09:47:11.676Z,3.70
2023-03-07T09:49:45.035Z,3.70
2023-03-07T09:52:14.710Z,3.80
2023-03-07T09:54:45.450Z,3.80
2023-03-07T09:57:17.804Z,3.80
2023-03-07T09:59:47.264Z,3.90
2023-03-07T10:02:18.448Z,3.90
2023-03-07T10:04:52.527Z,3.90
2023-03-07T10:07:20.786Z,3.90
2023-03-07T10:09:55.406Z,3.90
2023-03-07T10:12:48.386Z,3.90
2023-03-07T10:15:23.567Z,3.90
2023-03-07T10:18:10.542Z,4.00
2023-03-07T10:20:45.856Z,4.00
2023-03-07T10:23:29.692Z,4.00
2023-03-07T10:26:02.808Z,4.10
2023-03-07T10:28:31.810Z,4.10
2023-03-07T10:31:02.322Z,4.10
2023-03-07T10:33:30.220Z,4.10
2023-03-07T10:36:03.098Z,4.10
2023-03-07T10:38:35.285Z,4.10
2023-03-07T10:41:06.795Z,4.10
2023-03-07T10:43:34.738Z,4.10
2023-03-07T10:46:23.928Z,4.10
2023-03-07T10:48:54.639Z,4.10
2023-03-07T10:51:38.471Z,4.20
2023-03-07T10:54:10.625Z,4.20
2023-03-07T10:56:37.480Z,4.20
2023-03-07T10:59:05.880Z,4.20
2023-03-07T11:01:33.727Z,4.30
2023-03-07T11:04:01.822Z,4.30
2023-03-07T11:06:36.509Z,4.40
2023-03-07T11:09:17.204Z,4.40
2023-03-07T11:11:49.116Z,4.40
2023-03-07T11:14:18.467Z,4.50
2023-03-07T11:16:49.722Z,4.50
2023-03-07T11:19:32.745Z,4.50
2023-03-07T11:22:02.552Z,4.50
2023-03-07T11:24:31.253Z,4.50
2023-03-07T11:26:59.749Z,4.50
2023-03-07T11:29:26.716Z,4.50
2023-03-07T11:32:04.649Z,4.60
2023-03-07T11:34:39.640Z,4.70
2023-03-07T11:37:17.005Z,4.70
2023-03-07T11:39:49.343Z,4.70
2023-03-07T11:42:18.998Z,4.70
2023-03-07T11:44:52.081Z,4.60
2023-03-07T11:47:29.435Z,4.70
2023-03-07T11:50:08.377Z,4.70
2023-03-07T11:53:02.156Z,4.70
2023-03-07T11:55:36.202Z,4.70
2023-03-07T11:58:08.997Z,4.70
2023-03-07T12:00:48.874Z,4.70
2023-03-07T12:03:54.930Z,4.70
2023-03-07T12:06:28.454Z,4.70
2023-03-07T12:09:11.993Z,4.70
2023-03-07T12:11:52.847Z,4.70
2023-03-07T12:14:31.193Z,4.70
2023-03-07T12:17:11.450Z,4.70
2023-03-07T12:19:57.186Z,4.80
2023-03-07T12:22:27.601Z,4.80
2023-03-07T12:25:16.868Z,4.80
2023-03-07T12:27:47.972Z,4.80
2023-03-07T12:30:18.593Z,4.80
2023-03-07T12:32:46.400Z,4.80
2023-03-07T12:35:22.381Z,4.90
2023-03-07T12:37:53.712Z,4.90
2023-03-07T12:40:25.793Z,4.90
2023-03-07T12:42:58.340Z,5.00
2023-03-07T12:45:27.564Z,5.00
2023-03-07T12:48:04.378Z,5.00
2023-03-07T12:50:37.672Z,5.00
2023-03-07T12:53:10.438Z,5.00
2023-03-07T12:55:42.805Z,5.00
2023-03-07T12:58:15.283Z,5.00
2023-03-07T13:00:47.892Z,5.00
2023-03-07T13:03:23.313Z,5.10
2023-03-07T13:05:50.793Z,5.10
2023-03-07T13:08:23.035Z,5.10
2023-03-07T13:10:51.419Z,5.10
2023-03-07T13:13:55.640Z,5.10
2023-03-07T13:16:37.557Z,5.10
2023-03-07T13:19:41.960Z,5.10
2023-03-07T13:22:42.130Z,5.10
2023-03-07T13:25:56.600Z,5.20
2023-03-07T13:28:40.070Z,5.20
2023-03-07T13:31:39.640Z,5.20
2023-03-07T13:34:48.248Z,5.20
2023-03-07T13:37:49.073Z,5.20
2023-03-07T13:40:47.447Z,5.20
2023-03-07T13:43:56.926Z,5.30
2023-03-07T13:46:52.004Z,5.30
2023-03-07T13:49:42.037Z,5.30
2023-03-07T13:52:30.440Z,5.30
2023-03-07T13:54:59.344Z,5.30
2023-03-07T13:57:33.749Z,5.30
2023-03-07T14:00:02.445Z,5.30
2023-03-07T14:02:29.351Z,5.30
2023-03-07T14:04:56.163Z,5.30
2023-03-07T14:07:26.033Z,5.40
2023-03-07T14:09:56.300Z,5.40
2023-03-07T14:12:35.558Z,5.40
2023-03-07T14:15:20.437Z,5.40
2023-03-07T14:18:02.432Z,5.40
2023-03-07T14:20:43.021Z,5.40
2023-03-07T14:23:20.719Z,5.40
2023-03-07T14:25:52.354Z,5.40
2023-03-07T14:28:20.821Z,5.50
2023-03-07T14:30:55.833Z,5.50
2023-03-07T14:33:30.082Z,5.50
2023-03-07T14:35:57.327Z,5.50
2023-03-07T14:38:26.271Z,5.50
2023-03-07T14:41:17.310Z,5.50
2023-03-07T14:43:54.297Z,5.50
2023-03-07T14:46:30.018Z,5.50
2023-03-07T14:49:11.846Z,5.50
2023-03-07T14:51:41.775Z,5.60
2023-03-07T14:54:15.568Z,5.50
2023-03-07T14:56:42.645Z,5.50
2023-03-07T14:59:22.577Z,5.60
2023-03-07T15:01:56.963Z,5.60
2023-03-07T15:04:25.600Z,5.60
2023-03-07T15:06:57.258Z,5.60
2023-03-07T15:09:24.432Z,5.60
2023-03-07T15:11:56.424Z,5.60
2023-03-07T15:14:34.921Z,5.60
2023-03-07T15:17:07.330Z,5.60
2023-03-07T15:19:38.655Z,5.60
2023-03-07T15:22:15.855Z,5.60
2023-03-07T15:24:44.957Z,5.60
2023-03-07T15:27:14.946Z,5.60
2023-03-07T15:29:46.060Z,5.60
2023-03-07T15:32:30.604Z,5.60
2023-03-07T15:35:00.471Z,5.60
2023-03-07T15:37:28.937Z,5.60
2023-03-07T15:39:57.271Z,5.60
2023-03-07T15:42:24.028Z,5.60
2023-03-07T15:44:55.061Z,5.60
2023-03-07T15:47:23.872Z,5.60
2023-03-07T15:49:54.251Z,5.70
2023-03-07T15:52:26.476Z,5.60
2023-03-07T15:54:55.948Z,5.70
2023-03-07T15:57:25.846Z,5.70
2023-03-07T15:59:56.854Z,5.60
2023-03-07T16:02:46.103Z,5.70
2023-03-07T16:05:35.592Z,5.70
2023-03-07T16:08:02.355Z,5.70
2023-03-07T16:10:31.304Z,5.60
2023-03-07T16:13:00.214Z,5.60
2023-03-07T16:15:27.276Z,5.70
2023-03-07T16:17:55.261Z,5.70
2023-03-07T16:20:24.102Z,5.70
2023-03-07T16:22:52.670Z,5.60
2023-03-07T16:25:20.248Z,5.70
2023-03-07T16:27:51.373Z,5.70
2023-03-07T16:30:20.865Z,5.70
2023-03-07T16:32:47.681Z,5.60
2023-03-07T16:35:16.325Z,5.70
2023-03-07T16:37:43.168Z,5.70
2023-03-07T16:40:13.157Z,5.60
2023-03-07T16:42:42.592Z,5.70
2023-03-07T16:45:17.573Z,5.60
2023-03-07T16:47:44.488Z,5.70
2023-03-07T16:50:14.470Z,5.70
2023-03-07T16:52:42.654Z,5.70
2023-03-07T16:55:14.294Z,5.60
2023-03-07T16:57:42.370Z,5.70
2023-03-07T17:00:15.266Z,5.60
2023-03-07T17:02:42.153Z,5.60
2023-03-07T17:05:15.168Z,5.60
2023-03-07T17:07:42.007Z,5.60
2023-03-07T17:10:10.106Z,5.60
2023-03-07T17:12:38.310Z,5.60
2023-03-07T17:15:07.610Z,5.60
2023-03-07T17:17:36.395Z,5.50
2023-03-07T17:20:04.789Z,5.50
2023-03-07T17:22:31.584Z,5.50
2023-03-07T17:24:58.290Z,5.50
2023-03-07T17:27:25.160Z,5.40
2023-03-07T17:29:54.767Z,5.40
2023-03-07T17:32:21.687Z,5.40
2023-03-07T17:34:48.654Z,5.40
2023-03-07T17:37:15.544Z,5.30
2023-03-07T17:39:42.570Z,5.30
2023-03-07T17:42:09.441Z,5.30
2023-03-07T17:44:36.243Z,5.30
2023-03-07T17:47:04.400Z,5.20
2023-03-07T17:49:35.841Z,5.20
2023-03-07T17:52:03.324Z,5.20
2023-03-07T17:54:31.039Z,5.10
2023-03-07T17:56:57.808Z,5.10
2023-03-07T17:59:24.637Z,5.10
2023-03-07T18:01:51.443Z,5.10
2023-03-07T18:04:19.520Z,5.00
2023-03-07T18:06:46.270Z,5.00
2023-03-07T18:09:12.991Z,4.90
2023-03-07T18:11:39.729Z,4.90
2023-03-07T18:14:06.467Z,4.90
2023-03-07T18:16:33.232Z,4.80
2023-03-07T18:19:02.263Z,4.80
2023-03-07T18:21:31.707Z,4.70
2023-03-07T18:23:58.434Z,4.70
2023-03-07T18:26:25.544Z,4.70
2023-03-07T18:28:52.591Z,4.60
2023-03-07T18:31:21.503Z,4.60
2023-03-07T18:33:48.913Z,4.60
2023-03-07T18:36:16.528Z,4.50
2023-03-07T18:38:44.625Z,4.50
2023-03-07T18:41:13.364Z,4.40
2023-03-07T18:43:40.848Z,4.50
2023-03-07T18:46:09.989Z,4.40
2023-03-07T18:48:36.972Z,4.40
2023-03-07T18:51:05.871Z,4.30
2023-03-07T18:53:33.979Z,4.30
2023-03-07T18:56:03.879Z,4.30
2023-03-07T18:58:30.667Z,4.30
2023-03-07T19:00:57.496Z,4.30
2023-03-07T19:03:24.357Z,4.30
2023-03-07T19:05:51.068Z,4.20
2023-03-07T19:08:17.778Z,4.20
2023-03-07T19:10:44.574Z,4.10
2023-03-07T19:13:12.624Z,4.10
2023-03-07T19:15:39.338Z,4.10
2023-03-07T19:18:06.200Z,4.10
2023-03-07T19:20:32.916Z,4.10
2023-03-07T19:22:59.622Z,4.00
2023-03-07T19:25:26.389Z,3.90
2023-03-07T19:27:53.128Z,3.90
2023-03-07T19:30:21.494Z,4.00
2023-03-07T19:32:48.226Z,3.90
2023-03-07T19:35:15.103Z,3.80
2023-03-07T19:37:41.829Z,3.80
2023-03-07T19:40:09.882Z,3.80
2023-03-07T19:42:36.726Z,3.80
2023-03-07T19:45:04.468Z,3.80
2023-03-07T19:47:32.598Z,3.70
2023-03-07T19:49:59.463Z,3.70
2023-03-07T19:52:26.343Z,3.70
2023-03-07T19:54:53.421Z,3.70
2023-03-07T19:57:20.227Z,3.70
2023-03-07T19:59:51.407Z,3.70
2023-03-07T20:02:18.335Z,3.60
2023-03-07T20:04:46.402Z,3.60
2023-03-07T20:07:13.251Z,3.60
2023-03-07T20:09:39.978Z,3.60
2023-03-07T20:12:07.422Z,3.60
2023-03-07T20:14:34.256Z,3.60
2023-03-07T20:17:01.095Z,3.60
2023-03-07T20:19:27.887Z,3.60
2023-03-07T20:21:55.920Z,3.50
2023-03-07T20:24:22.636Z,3.30
2023-03-07T20:26:49.489Z,3.20
2023-03-07T20:29:16.238Z,3.20
2023-03-07T20:31:43.127Z,3.30
2023-03-07T20:34:11.216Z,3.40
2023-03-07T20:36:38.601Z,3.50
2023-03-07T20:39:08.650Z,3.40
2023-03-07T20:41:35.981Z,3.50
2023-03-07T20:44:04.246Z,3.50
2023-03-07T20:46:32.298Z,3.40
2023-03-07T20:49:00.563Z,3.50
2023-03-07T20:51:29.187Z,3.50
2023-03-07T20:53:57.408Z,3.50
2023-03-07T20:56:26.852Z,3.50
2023-03-07T20:58:54.154Z,3.60
2023-03-07T21:01:21.772Z,3.60
2023-03-07T21:03:48.870Z,3.60
2023-03-07T21:06:16.503Z,3.70
2023-03-07T21:08:43.544Z,3.70
2023-03-07T21:11:12.601Z,3.70
2023-03-07T21:13:42.546Z,3.80
2023-03-07T21:16:11.638Z,3.80
2023-03-07T21:18:38.725Z,3.70
2023-03-07T21:21:08.189Z,3.70
2023-03-07T21:23:35.345Z,3.70
2023-03-07T21:26:03.216Z,3.70
2023-03-07T21:28:30.021Z,3.70
2023-03-07T21:31:02.672Z,3.70
2023-03-07T21:33:30.100Z,3.80
2023-03-07T21:35:57.046Z,3.90
2023-03-07T21:38:24.311Z,3.90
2023-03-07T21:40:51.134Z,3.90
2023-03-07T21:43:17.918Z,4.00
2023-03-07T21:45:44.728Z,4.00
2023-03-07T21:48:13.264Z,4.10
2023-03-07T21:50:42.450Z,4.10
2023-03-07T21:53:09.319Z,4.10
2023-03-07T21:55:36.743Z,4.20
2023-03-07T21:58:03.764Z,4.20
2023-03-07T22:00:30.766Z,4.20
2023-03-07T22:02:57.572Z,4.20
2023-03-07T22:05:25.717Z,4.30
2023-03-07T22:07:52.429Z,4.30
2023-03-07T22:10:19.260Z,4.20
2023-03-07T22:12:45.989Z,4.20
2023-03-07T22:15:12.815Z,4.30
2023-03-07T22:17:39.528Z,4.30
2023-03-07T22:20:07.249Z,4.30
2023-03-07T22:22:35.418Z,4.30
2023-03-07T22:25:02.170Z,4.30
2023-03-07T22:27:29.079Z,4.30
2023-03-07T22:29:55.800Z,4.30
2023-03-07T22:32:22.518Z,4.30
2023-03-07T22:34:51.097Z,4.30
2023-03-07T22:37:17.971Z,4.30
2023-03-07T22:39:46.152Z,4.30
2023-03-07T22:42:12.904Z,4.30
2023-03-07T22:44:39.830Z,4.30
2023-03-07T22:47:06.622Z,4.30
2023-03-07T22:49:34.166Z,4.30
2023-03-07T22:52:01.059Z,4.30
2023-03-07T22:54:28.096Z,4.30
2023-03-07T22:56:56.165Z,4.30
2023-03-07T22:59:22.897Z,4.30
2023-03-07T23:01:49.608Z,4.30
2023-03-07T23:04:16.367Z,4.30
2023-03-07T23:06:43.196Z,4.30
2023-03-07T23:09:10.610Z,4.30
2023-03-07T23:11:37.322Z,4.30
2023-03-07T23:14:05.389Z,4.30
2023-03-07T23:16:32.875Z,4.30
2023-03-07T23:19:00.410Z,4.20
2023-03-07T23:21:29.214Z,4.20
2023-03-07T23:23:56.270Z,4.30
2023-03-07T23:26:25.070Z,4.20
2023-03-07T23:28:51.979Z,4.20
2023-03-07T23:31:21.999Z,4.30
2023-03-07T23:33:49.205Z,4.20
2023-03-07T23:36:16.720Z,4.20
2023-03-07T23:38:44.631Z,4.20
2023-03-07T23:41:11.463Z,4.20
2023-03-07T23:43:38.383Z,4.20
2023-03-07T23:46:05.611Z,4.20
2023-03-07T23:48:33.703Z,4.20
2023-03-07T23:51:00.525Z,4.20
2023-03-07T23:53:27.285Z,4.20
2023-03-07T23:55:54.044Z,4.20
2023-03-07T23:58:20.802Z,4.20
